• Join FlightAware (Why Join?)
  • Login
  • US Flag 
02:17AM EDT


 

Airport Tracker/Info


-or-


 

Live Flight TrackerFlight Track Log ✈ N175HQ ✈ 14-Apr-2013 ✈ KIND - KDEN

Flight Track Log - Related Links

Times and Time Zones

All times are in EDT time to prevent confusion due to time zone crossing. See the N175HQ flight status page for this flight to view local times or setup timezone preferences in your user account.

Time Position Orientation Groundspeed Altitude Reporting Facility
EDT Latitude Longitude Course Direction KTS MPH feet Rate Location/Type
08:34PM 39.7000 -86.3167 247° West 155 178 1,600  Level Indianapolis TRACON
08:35PM 39.6833 -86.3667 247° West 188 216 3,100 2,160 Climbing Indianapolis TRACON
08:36PM 39.6333 -86.4333 226° Southwest 251 289 5,800 2,760 Climbing Indianapolis TRACON
08:37PM 39.6194 -86.4492 221° Southwest 243 280 6,600 3,000 Climbing Indianapolis Center
08:38PM 39.5692 -86.5147 225° Southwest 252 290 9,700 2,340 Climbing Indianapolis Center
08:39PM 39.5472 -86.6142 254° West 289 333 11,400 2,100 Climbing Indianapolis Center
08:40PM 39.5422 -86.7356 267° West 321 369 14,000 2,280 Climbing Indianapolis Center
08:41PM 39.5467 -86.8614 273° West 339 390 16,100 2,160 Climbing Indianapolis Center
08:42PM 39.5514 -86.9917 273° West 355 409 18,500 2,220 Climbing Indianapolis Center
08:43PM 39.5544 -87.1247 272° West 366 421 20,700 2,040 Climbing Indianapolis Center
08:44PM 39.5581 -87.2586 272° West 370 426 22,700 1,620 Climbing Indianapolis Center
08:45PM 39.5617 -87.3961 272° West 380 437 24,100 1,320 Climbing Indianapolis Center
08:46PM 39.5647 -87.5406 272° West 397 457 25,500 1,320 Climbing Indianapolis Center
08:47PM 39.5683 -87.6878 272° West 406 467 26,900 1,500 Climbing Indianapolis Center
08:48PM 39.5714 -87.8647 271° West 408 470 28,600 1,440 Climbing Indianapolis Center
08:48PM 39.5722 -87.9294 271° West 414 476 29,200 1,260 Climbing Kansas City Center
08:49PM 39.5758 -88.0753 272° West 410 472 30,600 1,140 Climbing Kansas City Center
08:50PM 39.5875 -88.2514 275° West 409 471 31,600 1,200 Climbing Kansas City Center
08:51PM 39.6100 -88.3978 281° West 412 474 33,100 1,320 Climbing Kansas City Center
08:52PM 39.6297 -88.5408 280° West 406 467 34,300 780 Climbing Kansas City Center
08:54PM 39.6517 -88.6867 281° West 405 466 34,800 780 Climbing Kansas City Center
08:55PM 39.6717 -88.8314 280° West 407 468 36,000 540 Climbing Kansas City Center
08:56PM 39.6917 -88.9717 281° West 401 461 36,000  Level Kansas City Center
08:57PM 39.7106 -89.1106 280° West 392 451 36,000  Level Kansas City Center
08:58PM 39.7300 -89.2511 280° West 393 452 36,000  Level Kansas City Center
08:59PM 39.7489 -89.3936 280° West 397 457 36,000  Level Kansas City Center
09:00PM 39.7683 -89.5383 280° West 403 464 36,000  Level Kansas City Center
09:01PM 39.7908 -89.7117 280° West 403 464 36,000  Level Kansas City Center
09:02PM 39.8100 -89.8561 280° West 404 465 36,000  Level Kansas City Center
09:03PM 39.8292 -89.9994 280° West 403 464 36,000  Level Kansas City Center
09:04PM 39.8475 -90.1447 279° West 405 466 36,000  Level Kansas City Center
09:05PM 39.8664 -90.2906 280° West 406 467 36,000  Level Kansas City Center
09:06PM 39.8850 -90.4356 280° West 407 468 36,000  Level Kansas City Center
09:07PM 39.9036 -90.5806 280° West 404 465 36,000  Level Kansas City Center
09:08PM 39.9206 -90.7233 279° West 402 463 36,000  Level Kansas City Center
09:09PM 39.9383 -90.8631 279° West 395 455 36,000  Level Kansas City Center
09:10PM 39.9583 -91.0333 279° West 397 457 36,000  Level Kansas City Center
09:11PM 39.9753 -91.1739 279° West 398 458 36,000  Level Kansas City Center
09:12PM 39.9914 -91.3144 279° West 396 456 36,000  Level Kansas City Center
09:13PM 40.0075 -91.4550 279° West 395 455 36,000  Level Kansas City Center
09:14PM 40.0244 -91.5961 279° West 397 457 36,000  Level Kansas City Center
09:15PM 40.0408 -91.7372 279° West 397 457 36,000  Level Kansas City Center
09:16PM 40.0589 -91.9050 278° West 392 451 36,000  Level Kansas City Center
09:17PM 40.0756 -92.0414 279° West 387 445 36,000  Level Kansas City Center
09:18PM 40.0903 -92.1781 278° West 383 441 36,000  Level Kansas City Center
09:19PM 40.1053 -92.3156 278° West 384 442 36,000  Level Kansas City Center
09:20PM 40.1200 -92.4494 278° West 380 437 36,000  Level Kansas City Center
09:21PM 40.1389 -92.6028 279° West 381 438 36,000  Level Kansas City Center
09:22PM 40.1814 -92.7264 294° West 388 447 36,000  Level Kansas City Center
09:23PM 40.2306 -92.8717 294° West 391 450 36,000  Level Kansas City Center
09:24PM 40.2719 -92.9953 294° West 390 449 36,000  Level Kansas City Center
09:25PM 40.3175 -93.1306 294° West 376 433 36,000  Level Kansas City Center
09:26PM 40.3592 -93.2525 294° West 370 426 36,000  Level Kansas City Center
09:27PM 40.4003 -93.3753 294° West 371 427 36,000  Level Kansas City Center
09:28PM 40.4158 -93.4261 292° West 372 428 36,000  Level Minneapolis Center
09:29PM 40.4586 -93.5531 294° West 381 438 36,000  Level Minneapolis Center
09:30PM 40.5014 -93.6825 294° West 387 445 36,000  Level Minneapolis Center
09:31PM 40.5442 -93.8122 293° West 390 449 36,000  Level Minneapolis Center
09:32PM 40.5792 -93.9144 294° West 387 445 36,000  Level Minneapolis Center
09:33PM 40.6386 -94.0975 293° West 391 450 36,000  Level Minneapolis Center
09:34PM 40.6811 -94.2275 293° West 390 449 36,000  Level Minneapolis Center
09:35PM 40.7225 -94.3572 293° West 388 447 36,000  Level Minneapolis Center
09:36PM 40.7658 -94.4850 294° West 385 443 36,000  Level Minneapolis Center
09:37PM 40.8089 -94.6133 294° West 389 448 36,000  Level Minneapolis Center
09:38PM 40.8606 -94.7753 293° West 396 456 36,000  Level Minneapolis Center
09:39PM 40.9047 -94.9067 294° West 394 453 36,000  Level Minneapolis Center
09:40PM 40.9447 -95.0314 293° West 383 441 36,000  Level Minneapolis Center
09:41PM 40.9856 -95.1589 293° West 378 435 36,000  Level Minneapolis Center
09:42PM 41.0275 -95.2947 292° West 391 450 36,000  Level Minneapolis Center
09:43PM 41.0706 -95.4286 293° West 395 455 36,000  Level Minneapolis Center
09:44PM 41.1119 -95.5622 292° West 394 453 36,000  Level Minneapolis Center
09:45PM 41.1522 -95.6906 293° West 386 444 36,000  Level Minneapolis Center
09:46PM 41.1772 -95.8514 282° West 374 430 36,000  Level Minneapolis Center
09:47PM 41.1903 -95.9881 277° West 371 427 36,000  Level Minneapolis Center
09:48PM 41.2017 -96.1267 276° West 376 433 36,000  Level Minneapolis Center
09:49PM 41.2136 -96.2650 277° West 377 434 36,000  Level Minneapolis Center
09:50PM 41.2261 -96.3881 278° West 380 437 36,000  Level Minneapolis Center
09:51PM 41.2400 -96.5606 276° West 390 449 36,000  Level Minneapolis Center
09:52PM 41.2519 -96.7031 276° West 387 445 36,000  Level Minneapolis Center
09:53PM 41.2625 -96.8447 276° West 384 442 36,000  Level Minneapolis Center
09:54PM 41.2739 -96.9844 276° West 382 440 36,000  Level Minneapolis Center
09:55PM 41.2847 -97.1275 276° West 387 445 36,000  Level Minneapolis Center
09:56PM 41.2969 -97.2719 276° West 391 450 36,000  Level Minneapolis Center
09:57PM 41.3086 -97.4306 276° West 390 449 36,000  Level Minneapolis Center
09:58PM 41.3189 -97.5719 276° West 385 443 36,000  Level Minneapolis Center
10:00PM 41.3297 -97.7136 276° West 385 443 36,000  Level Minneapolis Center
10:01PM 41.3389 -97.8428 275° West 391 450 36,000  Level Minneapolis Center
10:02PM 41.3492 -97.9842 276° West 388 447 36,000  Level Minneapolis Center
10:03PM 41.3603 -98.1442 275° West 389 448 36,000  Level Minneapolis Center
10:04PM 41.3708 -98.2878 276° West 391 450 36,000  Level Minneapolis Center
10:05PM 41.3461 -98.4733 260° West 401 461 36,000  Level Minneapolis Center
10:06PM 41.3128 -98.6153 253° West 402 463 36,000  Level Minneapolis Center
10:07PM 41.2764 -98.7592 251° West 407 468 36,000  Level Minneapolis Center
10:08PM 41.2400 -98.9008 251° West 407 468 36,000  Level Minneapolis Center
10:09PM 41.2039 -99.0486 252° West 403 464 36,000  Level Denver Center
10:10PM 41.1700 -99.1844 252° West 395 455 36,000  Level Denver Center
10:11PM 41.1356 -99.3200 251° West 390 449 36,000  Level Denver Center
10:12PM 41.0997 -99.4592 251° West 385 443 36,000  Level Denver Center
10:13PM 41.0678 -99.5861 252° West 381 438 36,000  Level Denver Center
10:14PM 41.0350 -99.7161 252° West 375 432 36,000  Level Denver Center
10:15PM 40.9994 -99.8517 251° West 366 421 36,000  Level Denver Center
10:16PM 40.9628 -99.9894 251° West 358 412 36,000  Level Denver Center
10:17PM 40.9331 -100.1044 251° West 349 402 36,000  Level Denver Center
10:18PM 40.8981 -100.2392 251° West 347 399 36,000  Level Denver Center
10:19PM 40.8678 -100.3539 251° West 347 399 36,000  Level Denver Center
10:20PM 40.8369 -100.4706 251° West 349 402 36,000  Level Denver Center
10:21PM 40.8017 -100.6033 251° West 343 395 36,000  Level Denver Center
10:22PM 40.7750 -100.7194 253° West 339 390 36,000  Level Denver Center
10:23PM 40.7569 -100.8369 259° West 330 380 36,000  Level Denver Center
10:24PM 40.7358 -100.9678 258° West 327 376 36,000  Level Denver Center
10:25PM 40.7169 -101.0808 258° West 330 380 36,000  Level Denver Center
10:26PM 40.6944 -101.2100 257° West 325 374 36,000 -540 Level Denver Center
10:27PM 40.6744 -101.3219 257° West 326 375 34,900 -1,020 Descending Denver Center
10:28PM 40.6558 -101.4303 257° West 319 367 34,000 -480 Descending Denver Center
10:29PM 40.6331 -101.5592 257° West 323 372 34,000  Level Denver Center
10:30PM 40.6128 -101.6703 257° West 325 374 34,000  Level Denver Center
10:31PM 40.5903 -101.7989 257° West 324 373 34,000  Level Denver Center
10:33PM 40.5711 -101.9097 257° West 325 374 34,000  Level Denver Center
10:34PM 40.5467 -102.0372 256° West 323 372 34,000  Level Denver Center
10:35PM 40.5261 -102.1467 256° West 323 372 34,000  Level Denver Center
10:36PM 40.5039 -102.2742 257° West 320 368 34,000  Level Denver Center
10:37PM 40.4822 -102.3839 255° West 325 374 34,000  Level Denver Center
10:38PM 40.4664 -102.4756 257° West 323 372 34,000  Level Denver Center
10:39PM 40.4386 -102.6236 256° West 326 375 34,000  Level Denver Center
10:40PM 40.4172 -102.7308 255° West 325 374 34,000  Level Denver Center
10:41PM 40.3956 -102.8489 256° West 329 379 34,000  Level Denver Center
10:42PM 40.3683 -102.9878 256° West 334 384 34,000 -420 Level Denver Center
10:43PM 40.3456 -103.1075 256° West 338 389 33,200 -1,320 Descending Denver Center
10:44PM 40.3236 -103.2275 257° West 336 387 31,400 -1,800 Descending Denver Center
10:45PM 40.2989 -103.3483 255° West 341 392 29,600 -1,800 Descending Denver Center
10:46PM 40.2769 -103.4661 256° West 332 382 27,800 -1,740 Descending Denver Center
10:47PM 40.2533 -103.5819 255° West 329 379 26,100 -1,680 Descending Denver Center
10:48PM 40.2317 -103.6958 256° West 321 369 24,400 -1,620 Descending Denver Center
10:49PM 40.2128 -103.7986 256° West 275 316 22,800 -1,440 Descending Denver Center
10:50PM 40.1867 -103.8861 249° West 262 302 21,500 -1,380 Descending Denver Center
10:51PM 40.1447 -103.9736 238° Southwest 263 303 20,000 -1,440 Descending Denver Center
10:52PM 40.1058 -104.0569 239° Southwest 268 308 18,600 -1,320 Descending Denver Center
10:53PM 40.0678 -104.1414 240° Southwest 271 312 17,300 -1,260 Descending Denver Center
10:54PM 40.0236 -104.2347 238° Southwest 278 320 16,100 -1,080 Descending Denver Center
10:55PM 39.9850 -104.3183 239° Southwest 272 313 15,100 -960 Descending Denver Center
10:56PM 39.9467 -104.4000 239° Southwest 265 305 14,200 -1,080 Descending Denver Center
10:57PM 39.9044 -104.4850 237° Southwest 261 300 12,900 -1,260 Descending Denver Center
10:58PM 39.8381 -104.5011 191° South 242 278 11,700 -1,320 Descending Denver Center
10:59PM 39.7811 -104.5031 182° South 205 236 10,300 -1,740 Descending Denver Center
11:00PM 39.7397 -104.5372 212° Southwest 198 228 8,200 -1,620 Descending Denver Center
11:01PM 39.7369 -104.6167 267° West 202 232 7,100 -840 Descending Denver Center
11:02PM 39.7694 -104.6431 328° Northwest 139 160 6,600 -600 Descending Denver Center
11:03PM 39.8053 -104.6422 North 129 148 5,900 -660 Descending Denver Center
11:04PM 39.8456 -104.6419 360° North 135 155 5,300 -600 Descending Denver Center
11:06PM 39.8500 -104.6667 339° North  Level FlightAware Approximate
11:13PM 39.8617 -104.6732 339° North  Level Estimated
11:14PM 39.8617 -104.6732 339° North  Level Estimated